Time;durP1;ratioP1;P1;durP2;ratioP2;P2;SDS_P1;SDS_P2;PMS_P1;PMS_P2;Temp;Humidity;BMP_temperature;BMP_pressure;BME280_temperature;BME280_humidity;BME280_pressure;Samples;Min_cycle;Max_cycle;Signal;HPM_P1;HPM_P2
2022/11/28 00:17:02;;;;;;;18.67;10.03;;;;;;;-1.33;100.00;101234.11;1802100;78;22421;-88
2022/11/28 00:19:29;;;;;;;15.18;9.35;;;;;;;-0.72;100.00;101232.33;1751060;79;20960;-89
2022/11/28 00:21:56;;;;;;;19.87;12.18;;;;;;;-0.56;100.00;101231.89;1752757;79;21241;-88
2022/11/28 00:24:23;;;;;;;15.70;9.63;;;;;;;-0.18;100.00;101234.98;1751983;79;21025;-88
2022/11/28 00:26:49;;;;;;;17.87;11.08;;;;;;;0.15;100.00;101228.02;1752236;79;20927;-88
2022/11/28 00:29:16;;;;;;;14.87;9.33;;;;;;;0.18;100.00;101233.30;1750055;79;21048;-89
2022/11/28 00:31:43;;;;;;;16.48;10.32;;;;;;;0.23;100.00;101242.47;1748774;82;21019;-87
2022/11/28 00:34:11;;;;;;;15.75;10.30;;;;;;;0.28;100.00;101242.14;1748680;82;21206;-90
2022/11/28 00:36:39;;;;;;;14.18;9.83;;;;;;;0.25;100.00;101242.48;1748883;82;21004;-89
2022/11/28 00:39:06;;;;;;;14.20;9.48;;;;;;;0.38;100.00;101240.20;1748258;81;21645;-90
2022/11/28 00:41:34;;;;;;;13.65;8.88;;;;;;;0.47;100.00;101233.48;1748745;82;21068;-88
2022/11/28 00:44:00;;;;;;;14.70;8.65;;;;;;;0.34;100.00;101240.09;1753989;80;22353;-89
2022/11/28 00:46:27;;;;;;;13.68;8.98;;;;;;;0.40;100.00;101248.02;1756992;81;21565;-89
2022/11/28 00:48:57;;;;;;;16.48;9.75;;;;;;;0.50;100.00;101239.59;1757272;80;21036;-90
2022/11/28 00:51:28;;;;;;;14.90;9.25;;;;;;;0.45;100.00;101242.51;1757869;81;21037;-89
2022/11/28 00:53:57;;;;;;;12.63;8.83;;;;;;;0.55;100.00;101243.18;1757844;81;21042;-90
2022/11/28 00:56:28;;;;;;;13.48;8.73;;;;;;;0.57;100.00;101239.30;1757429;81;21053;-89
2022/11/28 00:58:57;;;;;;;12.80;8.60;;;;;;;0.71;100.00;101237.00;1757227;81;21160;-89
2022/11/28 01:01:27;;;;;;;11.38;7.95;;;;;;;0.76;100.00;101236.27;1775140;80;21025;-88
2022/11/28 01:03:55;;;;;;;9.78;6.17;;;;;;;0.81;100.00;101233.77;1788613;80;21188;-87
2022/11/28 01:06:26;;;;;;;11.00;6.90;;;;;;;0.82;100.00;101234.21;1788567;80;21073;-89
2022/11/28 01:08:54;;;;;;;11.73;7.28;;;;;;;0.81;100.00;101229.45;1788280;80;21001;-89
2022/11/28 01:11:22;;;;;;;13.05;7.28;;;;;;;0.93;100.00;101231.42;1788638;80;21678;-89
2022/11/28 01:13:52;;;;;;;10.00;5.90;;;;;;;0.95;100.00;101230.16;1788172;80;21035;-89
2022/11/28 01:16:20;;;;;;;12.78;7.42;;;;;;;1.03;100.00;101229.87;1713233;82;21096;-90
2022/11/28 01:18:47;;;;;;;8.70;6.10;;;;;;;1.03;100.00;101232.47;1719644;82;21096;-88
2022/11/28 01:21:13;;;;;;;12.80;7.35;;;;;;;0.87;100.00;101235.17;1748841;82;21084;-91
2022/11/28 01:23:40;;;;;;;11.80;6.70;;;;;;;0.87;100.00;101236.47;1748955;82;21222;-89
2022/11/28 01:26:07;;;;;;;13.45;7.25;;;;;;;1.00;100.00;101233.28;1748977;82;20997;-91
2022/11/28 01:28:34;;;;;;;9.15;6.15;;;;;;;0.99;100.00;101242.32;1748226;82;21386;-90
2022/11/28 01:31:07;;;;;;;10.78;6.60;;;;;;;0.99;100.00;101240.63;1748396;82;21600;-88
2022/11/28 01:33:34;;;;;;;7.25;4.85;;;;;;;1.07;100.00;101236.87;1748703;82;22109;-87
2022/11/28 01:36:03;;;;;;;10.93;6.95;;;;;;;1.15;100.00;101238.31;1748158;82;21111;-91
2022/11/28 01:38:31;;;;;;;10.85;6.72;;;;;;;1.11;100.00;101232.20;1748199;82;21136;-89
2022/11/28 01:40:57;;;;;;;9.23;6.58;;;;;;;1.18;100.00;101234.06;1748322;82;21104;-89
2022/11/28 01:43:24;;;;;;;12.10;7.37;;;;;;;1.24;100.00;101234.59;1748247;82;21092;-90
2022/11/28 01:45:51;;;;;;;9.63;6.87;;;;;;;1.20;100.00;101234.11;1748606;82;21580;-90
2022/11/28 01:48:25;;;;;;;9.05;5.20;;;;;;;1.17;100.00;101234.03;1748053;82;21152;-88
2022/11/28 01:50:56;;;;;;;10.82;7.12;;;;;;;1.15;100.00;101238.31;1748126;82;21069;-88
2022/11/28 01:53:22;;;;;;;9.60;5.78;;;;;;;1.23;100.00;101239.34;1747267;82;26587;-88
2022/11/28 01:55:57;;;;;;;10.32;6.70;;;;;;;1.22;100.00;101238.88;1748715;82;21057;-88
2022/11/28 01:58:25;;;;;;;9.30;6.35;;;;;;;1.26;100.00;101239.39;1748151;82;21025;-90
2022/11/28 02:00:53;;;;;;;9.85;7.00;;;;;;;1.29;100.00;101246.36;1756976;81;21713;-90
2022/11/28 02:03:29;;;;;;;10.72;6.80;;;;;;;1.24;100.00;101241.98;1772048;81;21028;-88
2022/11/28 02:05:55;;;;;;;9.48;6.40;;;;;;;1.23;100.00;101253.62;1771981;81;21020;-88
2022/11/28 02:08:24;;;;;;;10.53;6.53;;;;;;;1.23;100.00;101249.73;1771989;81;21127;-88
2022/11/28 02:11:19;;;;;;;9.53;6.70;;;;;;;1.20;100.00;101247.08;1771749;81;21104;-87
2022/11/28 02:14:21;;;;;;;10.53;6.53;;;;;;;1.20;100.00;101248.38;1756784;81;21138;-89
2022/11/28 02:17:31;;;;;;;8.25;5.53;;;;;;;1.21;100.00;101241.03;1781529;80;21039;-90
2022/11/28 02:20:29;;;;;;;10.45;7.12;;;;;;;1.19;100.00;101244.88;1788272;80;21122;-89
2022/11/28 02:23:22;;;;;;;9.83;6.55;;;;;;;1.18;100.00;101243.58;1789072;80;21063;-90
2022/11/28 02:26:11;;;;;;;7.67;5.35;;;;;;;1.14;100.00;101245.66;1788969;80;21094;-89
2022/11/28 02:29:20;;;;;;;8.30;5.70;;;;;;;1.17;100.00;101241.81;1787799;80;21110;-89
2022/11/28 02:32:01;;;;;;;11.65;6.50;;;;;;;1.20;100.00;101245.79;1790993;80;21081;-89
2022/11/28 02:35:00;;;;;;;8.00;5.62;;;;;;;1.16;100.00;101245.27;1783048;80;21009;-89
2022/11/28 02:37:53;;;;;;;4.78;3.67;;;;;;;1.13;100.00;101245.19;1791517;80;21020;-90
2022/11/28 02:40:24;;;;;;;4.60;3.52;;;;;;;1.15;100.00;101248.69;1789403;80;21031;-90
2022/11/28 02:43:29;;;;;;;4.30;3.40;;;;;;;1.16;100.00;101249.16;1787744;80;21816;-88
2022/11/28 02:46:36;;;;;;;4.60;3.45;;;;;;;1.15;100.00;101248.69;1788120;80;21199;-89
2022/11/28 02:49:07;;;;;;;5.35;4.10;;;;;;;1.16;100.00;101253.05;1787826;79;21554;-89
2022/11/28 02:51:41;;;;;;;6.40;3.98;;;;;;;1.19;100.00;101256.56;1788071;80;21090;-88
2022/11/28 02:54:10;;;;;;;5.03;3.80;;;;;;;1.18;100.00;101253.96;1788121;80;21027;-89
2022/11/28 02:56:37;;;;;;;4.80;3.25;;;;;;;1.19;100.00;101258.29;1787271;80;21840;-89
2022/11/28 02:59:04;;;;;;;5.92;4.05;;;;;;;1.11;100.00;101263.77;1787890;80;21106;-89
2022/11/28 03:01:34;;;;;;;4.03;3.25;;;;;;;1.20;100.00;101265.25;1787673;80;21072;-89
2022/11/28 03:04:21;;;;;;;4.17;3.30;;;;;;;1.14;100.00;101265.12;1787623;80;21087;-88
2022/11/28 03:07:06;;;;;;;4.83;3.45;;;;;;;1.14;100.00;101266.41;1787141;80;21168;-91
2022/11/28 03:09:55;;;;;;;5.20;3.40;;;;;;;1.20;100.00;101265.25;1787401;80;21135;-89
2022/11/28 03:12:47;;;;;;;5.90;3.70;;;;;;;1.15;100.00;101270.74;1787281;80;21000;-90
2022/11/28 03:15:22;;;;;;;5.70;3.77;;;;;;;1.14;100.00;101272.90;1784836;80;21087;-89
2022/11/28 03:18:03;;;;;;;4.33;3.00;;;;;;;1.18;100.00;101269.53;1743772;81;21132;-88
2022/11/28 03:20:50;;;;;;;5.53;3.35;;;;;;;1.24;100.00;101271.83;1713731;82;21105;-86
2022/11/28 03:23:28;;;;;;;4.45;3.75;;;;;;;1.17;100.00;101272.95;1742660;82;21252;-88
2022/11/28 03:26:02;;;;;;;4.30;3.45;;;;;;;1.15;100.00;101272.04;1742526;82;21054;-90
2022/11/28 03:28:52;;;;;;;3.15;2.80;;;;;;;1.19;100.00;101273.86;1746297;78;21006;-88
2022/11/28 03:31:26;;;;;;;4.50;3.20;;;;;;;1.23;100.00;101275.67;1746742;78;21232;-88
2022/11/28 03:33:55;;;;;;;4.47;3.10;;;;;;;1.25;100.00;101284.37;1745959;78;21082;-87
2022/11/28 03:36:26;;;;;;;4.08;3.30;;;;;;;0.96;100.00;101279.45;1716281;78;21191;-88
2022/11/28 03:39:03;;;;;;;9.48;5.33;;;;;;;1.04;100.00;101286.12;1744473;78;21787;-90
2022/11/28 03:41:38;;;;;;;5.05;3.85;;;;;;;1.04;100.00;101289.58;1750924;82;21064;-89
2022/11/28 03:44:17;;;;;;;6.80;4.37;;;;;;;0.99;100.00;101287.72;1750709;81;21128;-89
2022/11/28 03:46:46;;;;;;;4.87;3.35;;;;;;;0.98;100.00;101288.14;1751127;82;21041;-90
2022/11/28 03:49:17;;;;;;;5.78;3.98;;;;;;;0.91;100.00;101292.76;1714298;83;21230;-89
2022/11/28 03:51:49;;;;;;;5.17;4.05;;;;;;;0.91;100.00;101291.46;1751260;82;21041;-88
2022/11/28 03:54:20;;;;;;;5.95;3.90;;;;;;;0.90;100.00;101294.91;1750087;82;21077;-90
2022/11/28 03:57:14;;;;;;;4.92;4.05;;;;;;;0.98;100.00;101298.52;1751148;82;22145;-88
2022/11/28 03:59:51;;;;;;;5.50;4.65;;;;;;;1.03;100.00;101298.19;1750502;82;21009;-89
2022/11/28 04:02:26;;;;;;;7.70;4.80;;;;;;;1.10;100.00;101294.43;1750806;82;21417;-90
2022/11/28 04:05:01;;;;;;;5.42;4.30;;;;;;;1.13;100.00;101291.49;1750892;82;21061;-90
2022/11/28 04:07:54;;;;;;;5.40;3.80;;;;;;;1.15;100.00;101301.87;1750756;82;21076;-86
2022/11/28 04:10:32;;;;;;;6.67;4.55;;;;;;;1.01;100.00;101306.39;1731416;82;21585;-90
2022/11/28 04:13:22;;;;;;;5.58;4.08;;;;;;;1.01;100.00;101306.39;1736160;82;20973;-91
2022/11/28 04:16:25;;;;;;;6.90;4.35;;;;;;;1.04;100.00;101306.44;1751005;82;21087;-90
2022/11/28 04:19:07;;;;;;;5.35;4.08;;;;;;;1.01;100.00;101305.09;1751139;82;21017;-90
2022/11/28 04:21:59;;;;;;;4.78;3.75;;;;;;;1.03;100.00;101309.86;1751003;82;21085;-90
2022/11/28 04:24:34;;;;;;;7.42;5.05;;;;;;;1.11;100.00;101307.87;1751254;82;21396;-89
2022/11/28 04:27:04;;;;;;;7.08;4.90;;;;;;;1.12;100.00;101309.19;1750878;82;21354;-89
2022/11/28 04:29:35;;;;;;;;;;;;;;;1.24;100.00;101313.74;1718556;83;21219;-88
2022/11/28 04:32:01;;;;;;;5.85;4.37;;;;;;;1.24;100.00;101317.63;1685546;85;20200;-87
2022/11/28 04:34:28;;;;;;;6.87;4.55;;;;;;;1.21;100.00;101314.56;1752132;82;21053;-90
2022/11/28 04:36:54;;;;;;;6.00;4.53;;;;;;;1.17;100.00;101311.87;1715490;83;21034;-89
2022/11/28 04:39:24;;;;;;;6.42;4.47;;;;;;;1.17;100.00;101306.69;1714780;83;21090;-90
2022/11/28 04:41:58;;;;;;;5.22;4.22;;;;;;;1.14;100.00;101315.72;1714939;83;21199;-88
2022/11/28 04:44:33;;;;;;;6.47;4.55;;;;;;;1.25;100.00;101306.43;1722496;82;21064;-87
2022/11/28 04:46:59;;;;;;;6.58;4.80;;;;;;;1.31;100.00;101309.55;1750437;82;21040;-90
2022/11/28 04:49:28;;;;;;;6.50;4.65;;;;;;;1.16;100.00;101307.55;1751066;80;21092;-89
2022/11/28 04:52:16;;;;;;;9.25;5.67;;;;;;;1.14;100.00;101306.62;1687994;83;21637;-89
2022/11/28 04:55:09;;;;;;;8.15;5.42;;;;;;;1.18;100.00;101318.40;1751919;81;21059;-87
2022/11/28 04:57:43;;;;;;;6.37;4.70;;;;;;;1.19;100.00;101315.37;1715351;83;21057;-90
2022/11/28 05:00:20;;;;;;;7.47;5.35;;;;;;;1.17;100.00;101317.92;1717376;83;20995;-90
2022/11/28 05:02:45;;;;;;;5.40;4.47;;;;;;;1.26;100.00;101319.84;1754076;80;20955;-88
2022/11/28 05:05:18;;;;;;;7.35;4.30;;;;;;;1.31;100.00;101320.83;1754368;80;20997;-90
2022/11/28 05:07:46;;;;;;;5.67;4.65;;;;;;;1.26;100.00;101321.14;1754288;80;21022;-89
2022/11/28 05:10:15;;;;;;;6.22;4.65;;;;;;;1.24;100.00;101324.13;1753858;80;21226;-87
2022/11/28 05:12:43;;;;;;;5.40;4.58;;;;;;;1.29;100.00;101329.01;1689651;83;21030;-87
2022/11/28 05:15:10;;;;;;;6.85;5.47;;;;;;;1.34;100.00;101327.38;1716079;83;21037;-90
2022/11/28 05:17:37;;;;;;;7.90;5.08;;;;;;;1.40;100.00;101327.91;1762020;81;21063;-89
2022/11/28 05:20:06;;;;;;;5.05;4.15;;;;;;;1.29;100.00;101326.81;1759203;81;21217;-89
2022/11/28 05:22:33;;;;;;;7.70;5.10;;;;;;;1.29;100.00;101327.71;1759366;81;20997;-89
2022/11/28 05:24:59;;;;;;;6.25;4.40;;;;;;;1.18;100.00;101333.10;1759718;81;21741;-91
2022/11/28 05:27:26;;;;;;;7.75;5.05;;;;;;;1.05;100.00;101339.31;1759082;81;21068;-90
2022/11/28 05:29:53;;;;;;;6.72;4.80;;;;;;;0.99;100.00;101338.30;1760147;81;20981;-89
2022/11/28 05:32:19;;;;;;;8.55;5.42;;;;;;;1.06;100.00;101340.22;1759315;81;21947;-90
2022/11/28 05:34:46;;;;;;;7.72;5.35;;;;;;;1.11;100.00;101336.41;1759952;81;21055;-91
2022/11/28 05:37:16;;;;;;;7.08;5.28;;;;;;;1.10;100.00;101344.59;1761389;81;20922;-88
2022/11/28 05:39:45;;;;;;;7.65;5.70;;;;;;;1.14;100.00;101348.14;1744119;81;20970;-88
2022/11/28 05:42:11;;;;;;;8.48;6.33;;;;;;;1.16;100.00;101346.46;1761573;81;21047;-89
2022/11/28 05:44:38;;;;;;;6.70;4.95;;;;;;;1.10;100.00;101351.52;1759314;81;21386;-89
2022/11/28 05:47:04;;;;;;;10.38;5.75;;;;;;;1.15;100.00;101352.48;1759194;81;21115;-88
2022/11/28 05:49:31;;;;;;;6.83;4.20;;;;;;;1.21;100.00;101357.81;1759019;81;21080;-91
2022/11/28 05:51:58;;;;;;;6.37;4.53;;;;;;;1.25;100.00;101353.14;1758381;81;21110;-88
2022/11/28 05:54:25;;;;;;;5.50;4.30;;;;;;;1.30;100.00;101355.40;1758954;81;21051;-91
2022/11/28 05:57:01;;;;;;;6.47;4.58;;;;;;;1.23;100.00;101351.80;1759185;81;21109;-89
2022/11/28 05:59:31;;;;;;;8.58;5.20;;;;;;;1.33;100.00;101351.56;1744966;81;20965;-90
2022/11/28 06:01:58;;;;;;;6.17;4.95;;;;;;;1.32;100.00;101358.91;1758964;81;20994;-89
2022/11/28 14:29:39;;;;;;;58.00;24.10;;;;;;;-0.75;100.00;101425.84;1850889;76;22674;-90
2022/11/28 14:32:28;;;;;;;49.88;21.20;;;;;;;-0.57;100.00;101425.94;1816950;78;21873;-89
2022/11/28 14:34:55;;;;;;;55.78;22.75;;;;;;;-0.40;100.00;101427.28;1814100;78;21131;-88
2022/11/28 14:37:33;;;;;;;67.97;28.02;;;;;;;-0.21;100.00;101417.02;1813882;79;20985;-89
2022/11/28 14:40:04;;;;;;;45.65;22.10;;;;;;;0.06;100.00;101426.37;1814310;77;20990;-89
2022/11/28 14:42:36;;;;;;;42.98;21.80;;;;;;;0.17;100.00;101423.66;1816056;79;20951;-87
2022/11/28 14:45:40;;;;;;;;;;;;;;;0.24;100.00;101427.28;1785774;80;20943;-86
2022/11/28 14:48:31;;;;;;;41.37;16.87;;;;;;;0.50;100.00;101422.75;1782179;80;21251;-86
2022/11/28 14:50:59;;;;;;;51.00;18.50;;;;;;;0.57;100.00;101416.87;1782451;80;20992;-89
2022/11/28 14:53:43;;;;;;;27.90;14.23;;;;;;;0.65;100.00;101414.48;1781079;80;21501;-91
2022/11/28 14:56:25;;;;;;;30.90;14.07;;;;;;;0.69;100.00;101413.70;1781111;80;21806;-90
2022/11/28 14:58:55;;;;;;;;;;;;;;;0.77;100.00;101419.95;1783976;80;21161;-90
2022/11/28 15:01:51;;;;;;;29.63;14.07;;;;;;;0.84;100.00;101417.95;1781067;80;22018;-89
2022/11/28 15:04:39;;;;;;;36.75;20.32;;;;;;;0.84;100.00;101420.55;1780194;79;21084;-88
2022/11/28 15:07:13;;;;;;;45.03;23.60;;;;;;;0.86;100.00;101425.78;1780906;80;20990;-90
2022/11/28 15:10:08;;;;;;;40.35;20.35;;;;;;;0.81;100.00;101424.38;1763810;80;21096;-88
2022/11/28 15:13:04;;;;;;;29.45;16.85;;;;;;;0.89;100.00;101419.36;1780977;80;21205;-89
2022/11/28 15:15:31;;;;;;;32.40;15.80;;;;;;;0.99;100.00;101419.62;1780984;80;21218;-89
2022/11/28 15:17:59;;;;;;;35.50;17.35;;;;;;;0.98;100.00;101425.62;1782192;80;21033;-87
2022/11/28 15:20:41;;;;;;;34.13;17.48;;;;;;;1.03;100.00;101427.90;1754573;80;21010;-88
2022/11/28 15:23:29;;;;;;;28.65;15.08;;;;;;;0.97;100.00;101426.91;1739715;82;21563;-88
2022/11/28 15:25:58;;;;;;;28.05;14.75;;;;;;;0.95;100.00;101417.79;1780930;80;21100;-88
2022/11/28 15:28:27;;;;;;;32.90;16.10;;;;;;;1.03;100.00;101414.06;1777578;80;21208;-88
2022/11/28 15:30:56;;;;;;;34.45;20.30;;;;;;;1.02;100.00;101422.70;1770136;80;20953;-90
2022/11/28 15:33:24;;;;;;;25.30;13.35;;;;;;;1.02;100.00;101422.70;1769959;80;21070;-89
2022/11/28 15:36:09;;;;;;;24.75;13.08;;;;;;;1.04;100.00;101426.21;1769774;81;21028;-90
2022/11/28 15:38:35;;;;;;;27.32;13.48;;;;;;;1.08;100.00;101423.24;1769949;81;21476;-89
2022/11/28 15:41:02;;;;;;;29.00;13.75;;;;;;;1.08;100.00;101429.73;1769115;80;21306;-89
2022/11/28 15:43:30;;;;;;;30.30;15.03;;;;;;;1.11;100.00;101428.09;1769596;80;21024;-89
2022/11/28 15:45:59;;;;;;;37.33;17.50;;;;;;;1.14;100.00;101430.75;1769131;81;21658;-89
2022/11/28 15:48:36;;;;;;;37.40;18.27;;;;;;;1.16;100.00;101434.69;1769410;81;21674;-88
2022/11/28 15:51:04;;;;;;;34.43;16.70;;;;;;;1.14;100.00;101432.47;1769674;80;21064;-90
2022/11/28 15:53:30;;;;;;;27.58;14.75;;;;;;;1.20;100.00;101436.52;1770520;80;21133;-89
2022/11/28 15:56:10;;;;;;;31.55;16.70;;;;;;;1.20;100.00;101441.70;1741241;81;21009;-89
2022/11/28 15:58:36;;;;;;;35.80;17.77;;;;;;;1.23;100.00;101443.06;1771702;81;21039;-88
2022/11/28 16:01:17;;;;;;;41.08;20.30;;;;;;;1.27;100.00;101428.02;1771743;81;21021;-88
2022/11/28 16:04:05;;;;;;;;;;;;;;;1.28;100.00;101429.75;1773555;79;20950;-88
2022/11/28 16:06:35;;;;;;;46.13;21.07;;;;;;;1.21;100.00;101431.77;1769505;80;21344;-88
2022/11/28 16:09:25;;;;;;;43.63;21.12;;;;;;;1.29;100.00;101430.63;1770346;80;21048;-87
2022/11/28 16:11:52;;;;;;;46.00;20.70;;;;;;;1.29;100.00;101433.22;1769395;81;21099;-88
2022/11/28 16:14:25;;;;;;;43.73;20.12;;;;;;;1.33;100.00;101438.51;1769562;81;21084;-89
2022/11/28 16:16:51;;;;;;;45.00;19.77;;;;;;;1.22;100.00;101438.69;1780925;79;21111;-89
2022/11/28 16:19:22;;;;;;;51.10;21.68;;;;;;;1.23;100.00;101440.46;1767995;79;21119;-90
2022/11/28 16:21:56;;;;;;;46.73;21.07;;;;;;;1.22;100.00;101442.19;1796474;79;21094;-89
2022/11/28 16:24:33;;;;;;;51.90;21.50;;;;;;;1.11;100.00;101438.91;1796988;79;21047;-89
2022/11/28 16:27:01;;;;;;;56.50;21.15;;;;;;;1.07;100.00;101443.56;1797006;79;21119;-90
2022/11/28 16:29:30;;;;;;;48.00;19.85;;;;;;;0.98;100.00;101443.79;1769600;79;21251;-88
2022/11/28 16:32:24;;;;;;;59.67;21.95;;;;;;;0.93;100.00;101438.92;1797139;79;21089;-88
2022/11/28 16:34:54;;;;;;;70.45;24.50;;;;;;;0.96;100.00;101446.77;1788676;79;21028;-90
2022/11/28 16:37:26;;;;;;;57.30;22.22;;;;;;;0.87;100.00;101446.98;1797969;79;22202;-89
2022/11/28 16:40:15;;;;;;;68.05;26.07;;;;;;;1.00;100.00;101444.70;1797031;79;21449;-87
2022/11/28 16:42:54;;;;;;;68.95;26.35;;;;;;;0.87;100.00;101445.25;1797028;79;21048;-90
2022/11/28 16:45:27;;;;;;;65.10;25.92;;;;;;;0.91;100.00;101444.49;1796320;79;21880;-90
2022/11/28 16:48:12;;;;;;;70.62;26.35;;;;;;;1.08;100.00;101446.16;1797411;79;21048;-90
2022/11/28 16:50:42;;;;;;;62.20;24.63;;;;;;;0.95;100.00;101440.27;1797499;79;21033;-90
2022/11/28 16:53:09;;;;;;;54.40;23.22;;;;;;;1.14;100.00;101444.15;1771068;79;21131;-90
2022/11/28 16:55:37;;;;;;;60.63;24.65;;;;;;;1.22;100.00;101443.87;1771951;79;20944;-89
2022/11/28 16:58:15;;;;;;;49.63;23.73;;;;;;;1.13;100.00;101450.16;1798307;79;21569;-90
2022/11/28 17:00:49;;;;;;;49.75;23.80;;;;;;;1.18;100.00;101445.98;1797630;79;20997;-90
2022/11/28 17:03:48;;;;;;;62.50;25.32;;;;;;;1.21;100.00;101448.62;1797639;79;21040;-89
2022/11/28 17:06:52;;;;;;;48.68;20.97;;;;;;;1.17;100.00;101449.39;1799897;79;20961;-90
2022/11/28 17:09:26;;;;;;;52.23;21.68;;;;;;;1.33;100.00;101448.02;1799501;79;21009;-89
2022/11/28 17:12:19;;;;;;;59.77;23.87;;;;;;;1.17;100.00;101446.38;1799293;79;21505;-89
2022/11/28 17:14:47;;;;;;;61.30;26.10;;;;;;;1.33;100.00;101442.40;1796540;79;21083;-91
2022/11/28 17:17:14;;;;;;;56.85;23.60;;;;;;;1.34;100.00;101447.20;1797204;79;21057;-90
2022/11/28 17:19:42;;;;;;;64.53;25.05;;;;;;;1.27;100.00;101443.59;1797028;79;21068;-90
2022/11/28 17:22:14;;;;;;;56.75;23.60;;;;;;;1.29;100.00;101440.61;1797334;79;21195;-90
2022/11/28 17:24:45;;;;;;;53.95;23.95;;;;;;;1.22;100.00;101439.59;1770796;79;20937;-90
2022/11/28 17:27:17;;;;;;;57.85;24.92;;;;;;;1.20;100.00;101439.11;1798533;79;21032;-90
2022/11/28 17:29:44;;;;;;;;;;;;;;;1.26;100.00;101437.92;1790639;79;20993;-89
2022/11/28 17:32:12;;;;;;;58.17;24.82;;;;;;;1.28;100.00;101436.67;1782790;80;20219;-89
2022/11/28 17:34:40;;;;;;;53.28;22.85;;;;;;;1.30;100.00;101437.58;1782965;80;21002;-89
2022/11/28 17:37:09;;;;;;;43.17;21.12;;;;;;;1.24;100.00;101439.61;1782896;80;21144;-89
2022/11/28 17:39:36;;;;;;;52.85;22.48;;;;;;;1.30;100.00;101437.16;1782708;80;21041;-90
2022/11/28 22:12:06;;;;;;;74.60;25.93;;;;;;;0.75;100.00;101461.40;1782120;77;83187;-67
2022/11/28 22:14:33;;;;;;;73.22;25.90;;;;;;;1.66;100.00;101456.97;1754547;81;21571;-67
2022/11/28 22:17:00;;;;;;;52.70;21.87;;;;;;;2.38;100.00;101449.66;1754576;81;21163;-68
2022/11/28 22:19:27;;;;;;;47.70;20.52;;;;;;;6.22;100.00;101441.70;1754607;81;21582;-68
2022/11/28 22:21:53;;;;;;;45.65;18.90;;;;;;;7.39;100.00;101442.97;1754923;81;21534;-68
2022/11/28 22:24:20;;;;;;;40.50;19.65;;;;;;;5.91;100.00;101450.73;1755022;81;21000;-69
2022/11/28 22:26:48;;;;;;;38.53;18.02;;;;;;;6.37;100.00;101446.94;1755022;81;21511;-67
2022/11/28 22:29:15;;;;;;;77.10;38.05;;;;;;;6.49;100.00;101453.96;1754742;81;23315;-68
2022/11/28 22:31:42;;;;;;;33.63;15.05;;;;;;;6.37;100.00;101444.33;1754825;81;20929;-68
2022/11/28 22:34:09;;;;;;;33.48;15.90;;;;;;;6.61;100.00;101446.55;1754734;81;22203;-68
2022/11/28 22:36:36;;;;;;;53.15;21.40;;;;;;;6.59;100.00;101445.67;1754787;81;21579;-67
2022/11/28 22:39:05;;;;;;;29.37;15.18;;;;;;;6.59;100.00;101449.60;1729924;81;21032;-68
2022/11/28 22:41:33;;;;;;;32.17;12.63;;;;;;;7.66;100.00;101449.84;1754840;81;21867;-68
2022/11/28 22:44:00;;;;;;;25.57;12.40;;;;;;;7.67;100.00;101443.28;1754610;81;21025;-68
2022/11/28 22:46:27;;;;;;;26.33;11.65;;;;;;;7.70;100.00;101448.51;1754835;81;21040;-67
2022/11/28 22:48:54;;;;;;;31.55;18.65;;;;;;;7.21;100.00;101451.29;1754788;81;21079;-68
2022/11/28 22:51:23;;;;;;;30.72;15.88;;;;;;;6.98;100.00;101445.23;1754835;81;21040;-67
2022/11/28 22:53:54;;;;;;;26.02;14.25;;;;;;;7.18;100.00;101456.55;1729026;81;21918;-68
2022/11/28 22:56:22;;;;;;;26.80;14.40;;;;;;;6.77;100.00;101443.50;1754990;81;21036;-67
2022/11/28 22:58:49;;;;;;;31.12;15.15;;;;;;;6.74;100.00;101449.61;1754736;81;21083;-68
2022/11/28 23:01:20;;;;;;;26.07;12.43;;;;;;;7.07;100.00;101445.21;1754700;81;21060;-68
2022/11/28 23:03:47;;;;;;;22.50;11.83;;;;;;;7.30;100.00;101450.41;1754471;81;21075;-68
2022/11/28 23:06:17;;;;;;;26.10;12.03;;;;;;;7.23;100.00;101453.47;1754390;81;21330;-68
2022/11/28 23:08:43;;;;;;;24.40;11.55;;;;;;;7.41;100.00;101451.66;1754422;81;21052;-68
2022/11/28 23:11:19;;;;;;;25.50;11.70;;;;;;;7.19;100.00;101453.04;1754401;81;21016;-69
2022/11/28 23:13:48;;;;;;;26.15;13.60;;;;;;;6.85;100.00;101454.37;1780604;78;21045;-69
2022/11/28 23:16:28;;;;;;;20.60;10.58;;;;;;;7.31;100.00;101452.14;1791950;80;21120;-68
2022/11/28 23:18:57;;;;;;;23.00;11.45;;;;;;;7.50;100.00;101452.53;1791785;80;21200;-69
2022/11/28 23:21:24;;;;;;;20.82;11.10;;;;;;;7.41;100.00;101443.39;1792014;80;21588;-68
2022/11/28 23:23:50;;;;;;;23.12;11.18;;;;;;;7.68;100.00;101441.08;1791466;80;21027;-68
2022/11/28 23:26:22;;;;;;;22.75;11.15;;;;;;;7.10;100.00;101442.58;1791323;79;22147;-67
2022/11/28 23:28:50;;;;;;;21.48;9.83;;;;;;;7.53;100.00;101434.61;1791436;80;21041;-67
2022/11/28 23:31:19;;;;;;;21.25;10.40;;;;;;;6.75;100.00;101427.78;1791355;79;21553;-68
2022/11/28 23:33:46;;;;;;;17.32;9.58;;;;;;;6.97;100.00;101432.98;1791668;79;21112;-68
2022/11/28 23:36:25;;;;;;;16.85;10.23;;;;;;;8.00;100.00;101426.95;1791452;79;21094;-67
2022/11/28 23:38:57;;;;;;;19.07;10.00;;;;;;;7.54;100.00;101428.03;1791559;79;21495;-68
2022/11/28 23:41:24;;;;;;;21.02;10.05;;;;;;;7.70;100.00;101435.40;1791294;80;21128;-67
2022/11/28 23:43:51;;;;;;;19.48;9.50;;;;;;;4.28;100.00;101437.95;1791598;80;21093;-68
2022/11/28 23:46:18;;;;;;;21.85;10.03;;;;;;;2.69;100.00;101432.44;1791378;79;22179;-68
2022/11/28 23:48:46;;;;;;;22.85;11.08;;;;;;;2.49;100.00;101437.30;1791667;80;21042;-68
2022/11/28 23:51:13;;;;;;;20.10;10.23;;;;;;;2.35;100.00;101436.59;1791329;80;21567;-68
2022/11/28 23:53:40;;;;;;;23.73;10.60;;;;;;;4.88;100.00;101431.03;1791807;80;21100;-67
2022/11/28 23:56:12;;;;;;;20.32;10.20;;;;;;;6.02;100.00;101422.91;1791345;80;21315;-68
2022/11/28 23:58:39;;;;;;;21.73;9.70;;;;;;;6.65;100.00;101422.12;1791349;80;21551;-67
